Olmito, Texas
Current Conditions -  °F | °C
As of 10:23 AM on Wednesday 22 Oct 2014 (Local Time) from KBRO Reporting Station
Broken Clouds Broken Clouds  
Wind Chill: 75°   Ceiling: 3300
Heat Index: 75°   Visibility: 8mi
Dew Point: 73°   Wind: 0mph
Humidity: 94%   Direction: NA
Pressure: 30.02"   Gusts: NA
Location:  26.02°N, 97.53°W
Report Text: KBRO 221523Z 00000KT 8SM SCT026 BKN033 BKN060 24/23 A3002 RMK AO2 RAE02 P0000
Loading
Personal Weather Stations






























Interactive Weather Map New forecast layout! Learn more

10-Day Weather Forecast

Advertisements
Track Severe Weather on mobile